sensor_id;sensor_type;location;lat;lon;timestamp;temperature;humidity
939;DHT22;456;53.584;9.968;2023-02-28T06:43:41;16.90;11.60
939;DHT22;456;53.584;9.968;2023-02-28T06:46:08;17.00;12.20
939;DHT22;456;53.584;9.968;2023-02-28T06:48:34;16.90;12.10
939;DHT22;456;53.584;9.968;2023-02-28T06:51:11;16.90;11.90
939;DHT22;456;53.584;9.968;2023-02-28T06:53:38;16.90;11.80
939;DHT22;456;53.584;9.968;2023-02-28T06:56:14;16.90;11.80
939;DHT22;456;53.584;9.968;2023-02-28T06:58:40;16.90;11.70
939;DHT22;456;53.584;9.968;2023-02-28T07:01:07;16.90;11.80
939;DHT22;456;53.584;9.968;2023-02-28T07:03:34;16.90;11.90
939;DHT22;456;53.584;9.968;2023-02-28T07:06:00;16.80;11.90
939;DHT22;456;53.584;9.968;2023-02-28T07:08:26;16.90;12.00
939;DHT22;456;53.584;9.968;2023-02-28T07:10:53;16.90;11.90
939;DHT22;456;53.584;9.968;2023-02-28T07:13:19;16.90;12.00
939;DHT22;456;53.584;9.968;2023-02-28T07:15:52;16.90;12.00
939;DHT22;456;53.584;9.968;2023-02-28T07:18:17;16.80;11.90
939;DHT22;456;53.584;9.968;2023-02-28T07:20:43;16.80;11.80
939;DHT22;456;53.584;9.968;2023-02-28T07:23:08;16.90;11.90
939;DHT22;456;53.584;9.968;2023-02-28T07:25:34;16.80;11.80
939;DHT22;456;53.584;9.968;2023-02-28T07:27:59;16.80;11.80
939;DHT22;456;53.584;9.968;2023-02-28T07:30:25;16.80;11.90
939;DHT22;456;53.584;9.968;2023-02-28T07:32:51;16.80;12.00
939;DHT22;456;53.584;9.968;2023-02-28T07:35:16;16.80;12.00
939;DHT22;456;53.584;9.968;2023-02-28T07:37:42;16.80;12.00
939;DHT22;456;53.584;9.968;2023-02-28T07:40:10;16.80;12.00
939;DHT22;456;53.584;9.968;2023-02-28T07:42:40;16.80;11.90
939;DHT22;456;53.584;9.968;2023-02-28T07:45:06;16.80;12.00
939;DHT22;456;53.584;9.968;2023-02-28T07:47:32;16.80;12.00
939;DHT22;456;53.584;9.968;2023-02-28T07:49:57;16.80;12.00
939;DHT22;456;53.584;9.968;2023-02-28T07:52:23;16.80;12.00
939;DHT22;456;53.584;9.968;2023-02-28T07:54:50;16.90;12.10
939;DHT22;456;53.584;9.968;2023-02-28T07:57:16;16.90;12.10
939;DHT22;456;53.584;9.968;2023-02-28T07:59:41;16.90;12.10
939;DHT22;456;53.584;9.968;2023-02-28T08:02:14;16.90;12.10
939;DHT22;456;53.584;9.968;2023-02-28T08:04:40;16.90;12.10
939;DHT22;456;53.584;9.968;2023-02-28T08:07:06;16.90;12.10
939;DHT22;456;53.584;9.968;2023-02-28T08:09:32;16.90;12.10
939;DHT22;456;53.584;9.968;2023-02-28T08:11:58;16.90;12.10
939;DHT22;456;53.584;9.968;2023-02-28T08:14:23;16.90;12.10
939;DHT22;456;53.584;9.968;2023-02-28T08:16:49;16.90;12.10
939;DHT22;456;53.584;9.968;2023-02-28T08:19:14;16.90;12.10
939;DHT22;456;53.584;9.968;2023-02-28T08:21:40;16.90;12.10
939;DHT22;456;53.584;9.968;2023-02-28T08:24:06;16.90;12.10
939;DHT22;456;53.584;9.968;2023-02-28T08:26:32;16.90;12.10
939;DHT22;456;53.584;9.968;2023-02-28T08:28:57;16.90;12.10
939;DHT22;456;53.584;9.968;2023-02-28T08:31:23;16.90;12.10
939;DHT22;456;53.584;9.968;2023-02-28T08:33:49;16.90;12.10
939;DHT22;456;53.584;9.968;2023-02-28T08:36:18;16.90;12.10
939;DHT22;456;53.584;9.968;2023-02-28T08:38:44;16.90;12.10
939;DHT22;456;53.584;9.968;2023-02-28T08:41:12;16.90;12.10
939;DHT22;456;53.584;9.968;2023-02-28T08:43:38;16.90;12.10
939;DHT22;456;53.584;9.968;2023-02-28T08:46:05;16.90;12.10
939;DHT22;456;53.584;9.968;2023-02-28T08:48:33;16.90;12.10
939;DHT22;456;53.584;9.968;2023-02-28T08:51:02;16.90;12.10
939;DHT22;456;53.584;9.968;2023-02-28T08:53:28;16.90;12.10
939;DHT22;456;53.584;9.968;2023-02-28T08:56:05;16.90;12.10
939;DHT22;456;53.584;9.968;2023-02-28T08:58:31;16.90;12.10
939;DHT22;456;53.584;9.968;2023-02-28T09:00:58;16.90;12.10
939;DHT22;456;53.584;9.968;2023-02-28T09:03:24;16.90;12.10
939;DHT22;456;53.584;9.968;2023-02-28T09:05:58;16.90;12.10
939;DHT22;456;53.584;9.968;2023-02-28T09:08:25;16.90;12.10
939;DHT22;456;53.584;9.968;2023-02-28T09:10:51;16.90;12.10
939;DHT22;456;53.584;9.968;2023-02-28T09:13:18;16.90;12.10
939;DHT22;456;53.584;9.968;2023-02-28T09:15:44;16.90;12.10
939;DHT22;456;53.584;9.968;2023-02-28T09:18:10;16.90;12.10
939;DHT22;456;53.584;9.968;2023-02-28T09:20:40;16.90;12.10
939;DHT22;456;53.584;9.968;2023-02-28T09:23:07;16.90;12.10
939;DHT22;456;53.584;9.968;2023-02-28T09:25:34;16.90;12.10
939;DHT22;456;53.584;9.968;2023-02-28T09:27:59;16.90;12.10
939;DHT22;456;53.584;9.968;2023-02-28T09:30:25;16.90;12.10
939;DHT22;456;53.584;9.968;2023-02-28T09:32:51;16.90;12.10
939;DHT22;456;53.584;9.968;2023-02-28T09:35:22;16.90;12.10
939;DHT22;456;53.584;9.968;2023-02-28T09:37:49;16.90;12.10
939;DHT22;456;53.584;9.968;2023-02-28T09:40:15;16.90;12.10
939;DHT22;456;53.584;9.968;2023-02-28T09:42:46;16.90;12.10
939;DHT22;456;53.584;9.968;2023-02-28T09:45:34;16.90;12.10
939;DHT22;456;53.584;9.968;2023-02-28T09:48:04;16.90;12.10
939;DHT22;456;53.584;9.968;2023-02-28T09:50:35;16.90;12.10
939;DHT22;456;53.584;9.968;2023-02-28T09:53:22;16.80;12.00
939;DHT22;456;53.584;9.968;2023-02-28T09:55:55;16.90;12.10
939;DHT22;456;53.584;9.968;2023-02-28T09:58:40;16.90;12.10
939;DHT22;456;53.584;9.968;2023-02-28T10:06:48;16.90;12.10
939;DHT22;456;53.584;9.968;2023-02-28T10:09:18;16.90;12.10
939;DHT22;456;53.584;9.968;2023-02-28T10:11:46;16.90;12.10
939;DHT22;456;53.584;9.968;2023-02-28T10:14:21;16.90;12.10
939;DHT22;456;53.584;9.968;2023-02-28T10:17:07;16.90;12.10
939;DHT22;456;53.584;9.968;2023-02-28T10:22:21;16.90;12.10
939;DHT22;456;53.584;9.968;2023-02-28T10:24:53;16.90;12.70
939;DHT22;456;53.584;9.968;2023-02-28T10:27:22;16.90;12.10
939;DHT22;456;53.584;9.968;2023-02-28T10:29:53;16.90;12.10
939;DHT22;456;53.584;9.968;2023-02-28T10:32:24;16.90;12.10
939;DHT22;456;53.584;9.968;2023-02-28T10:37:39;16.90;12.10
939;DHT22;456;53.584;9.968;2023-02-28T10:40:11;16.90;12.10
939;DHT22;456;53.584;9.968;2023-02-28T10:42:56;16.90;12.10
939;DHT22;456;53.584;9.968;2023-02-28T10:45:23;16.90;12.10
939;DHT22;456;53.584;9.968;2023-02-28T10:47:58;16.90;12.10
939;DHT22;456;53.584;9.968;2023-02-28T10:50:28;16.90;12.10
939;DHT22;456;53.584;9.968;2023-02-28T10:52:54;16.90;12.10
939;DHT22;456;53.584;9.968;2023-02-28T10:55:23;16.90;12.10
939;DHT22;456;53.584;9.968;2023-02-28T10:57:50;16.90;12.10
939;DHT22;456;53.584;9.968;2023-02-28T11:00:22;16.90;12.10
939;DHT22;456;53.584;9.968;2023-02-28T11:02:48;16.90;12.10
939;DHT22;456;53.584;9.968;2023-02-28T11:05:29;16.90;12.10
939;DHT22;456;53.584;9.968;2023-02-28T11:07:59;16.90;12.10
939;DHT22;456;53.584;9.968;2023-02-28T11:10:30;16.90;12.10
939;DHT22;456;53.584;9.968;2023-02-28T11:13:00;16.90;12.10
939;DHT22;456;53.584;9.968;2023-02-28T11:15:28;16.90;12.10
939;DHT22;456;53.584;9.968;2023-02-28T11:17:55;16.90;12.10
939;DHT22;456;53.584;9.968;2023-02-28T11:20:25;16.80;12.00
939;DHT22;456;53.584;9.968;2023-02-28T11:22:51;16.80;12.00
939;DHT22;456;53.584;9.968;2023-02-28T11:27:51;16.80;12.00
939;DHT22;456;53.584;9.968;2023-02-28T11:32:57;16.80;12.00
939;DHT22;456;53.584;9.968;2023-02-28T11:35:33;16.80;12.10
939;DHT22;456;53.584;9.968;2023-02-28T11:38:00;16.80;12.00
939;DHT22;456;53.584;9.968;2023-02-28T11:40:43;16.80;12.00
939;DHT22;456;53.584;9.968;2023-02-28T11:51:53;16.80;12.00
939;DHT22;456;53.584;9.968;2023-02-28T12:17:30;16.70;11.90
939;DHT22;456;53.584;9.968;2023-02-28T12:28:16;16.70;11.70
939;DHT22;456;53.584;9.968;2023-02-28T12:30:59;16.70;11.70
939;DHT22;456;53.584;9.968;2023-02-28T12:33:31;16.70;11.70
939;DHT22;456;53.584;9.968;2023-02-28T12:36:03;16.70;11.70
939;DHT22;456;53.584;9.968;2023-02-28T12:39:20;16.70;11.70
939;DHT22;456;53.584;9.968;2023-02-28T12:46:49;16.70;11.70
939;DHT22;456;53.584;9.968;2023-02-28T12:49:27;16.70;11.70
939;DHT22;456;53.584;9.968;2023-02-28T12:51:57;16.60;11.50
939;DHT22;456;53.584;9.968;2023-02-28T12:57:19;16.60;11.60
939;DHT22;456;53.584;9.968;2023-02-28T12:59:53;16.60;11.50
939;DHT22;456;53.584;9.968;2023-02-28T13:08:24;16.60;11.60
939;DHT22;456;53.584;9.968;2023-02-28T13:10:53;16.60;11.50
939;DHT22;456;53.584;9.968;2023-02-28T13:13:24;16.60;11.50
939;DHT22;456;53.584;9.968;2023-02-28T13:16:08;16.60;11.50
939;DHT22;456;53.584;9.968;2023-02-28T13:18:38;16.60;11.60
939;DHT22;456;53.584;9.968;2023-02-28T13:21:07;16.60;11.60
939;DHT22;456;53.584;9.968;2023-02-28T13:23:56;16.60;11.60
939;DHT22;456;53.584;9.968;2023-02-28T13:28:58;16.60;11.50
939;DHT22;456;53.584;9.968;2023-02-28T13:31:24;16.60;11.60
939;DHT22;456;53.584;9.968;2023-02-28T13:36:29;16.50;11.50
939;DHT22;456;53.584;9.968;2023-02-28T13:38:57;16.60;11.60
939;DHT22;456;53.584;9.968;2023-02-28T13:44:14;16.60;11.70
939;DHT22;456;53.584;9.968;2023-02-28T13:51:55;16.50;11.40
939;DHT22;456;53.584;9.968;2023-02-28T13:54:45;16.60;11.60
939;DHT22;456;53.584;9.968;2023-02-28T14:08:58;16.90;12.50
939;DHT22;456;53.584;9.968;2023-02-28T14:11:31;16.90;12.40
939;DHT22;456;53.584;9.968;2023-02-28T14:13:57;16.90;12.40
939;DHT22;456;53.584;9.968;2023-02-28T14:16:25;17.00;12.50
939;DHT22;456;53.584;9.968;2023-02-28T14:19:14;17.10;12.50
939;DHT22;456;53.584;9.968;2023-02-28T14:22:02;17.10;12.50
939;DHT22;456;53.584;9.968;2023-02-28T14:41:34;17.10;12.60
939;DHT22;456;53.584;9.968;2023-02-28T14:44:19;17.10;12.70
939;DHT22;456;53.584;9.968;2023-02-28T14:46:50;17.10;12.60
939;DHT22;456;53.584;9.968;2023-02-28T14:49:21;17.10;12.60
939;DHT22;456;53.584;9.968;2023-02-28T14:52:15;17.10;12.60
939;DHT22;456;53.584;9.968;2023-02-28T14:54:43;17.10;12.50
939;DHT22;456;53.584;9.968;2023-02-28T15:02:42;17.10;12.50
939;DHT22;456;53.584;9.968;2023-02-28T15:07:47;17.10;12.40
939;DHT22;456;53.584;9.968;2023-02-28T15:10:19;17.00;12.40
939;DHT22;456;53.584;9.968;2023-02-28T15:12:52;17.00;12.20
939;DHT22;456;53.584;9.968;2023-02-28T15:15:18;17.00;12.30
939;DHT22;456;53.584;9.968;2023-02-28T15:17:49;17.00;12.40
939;DHT22;456;53.584;9.968;2023-02-28T15:20:16;17.00;12.30
939;DHT22;456;53.584;9.968;2023-02-28T15:22:44;17.00;12.40
939;DHT22;456;53.584;9.968;2023-02-28T15:25:15;17.00;12.40
939;DHT22;456;53.584;9.968;2023-02-28T15:27:47;17.00;12.30
939;DHT22;456;53.584;9.968;2023-02-28T15:33:05;17.00;12.40
939;DHT22;456;53.584;9.968;2023-02-28T15:35:33;17.00;12.40
939;DHT22;456;53.584;9.968;2023-02-28T15:38:12;16.90;12.40
939;DHT22;456;53.584;9.968;2023-02-28T15:41:04;16.90;12.40
939;DHT22;456;53.584;9.968;2023-02-28T15:43:35;16.90;12.50
939;DHT22;456;53.584;9.968;2023-02-28T15:46:07;17.00;12.60
939;DHT22;456;53.584;9.968;2023-02-28T15:48:57;17.00;12.60
939;DHT22;456;53.584;9.968;2023-02-28T15:51:33;17.00;12.60
939;DHT22;456;53.584;9.968;2023-02-28T15:54:04;17.00;12.50
939;DHT22;456;53.584;9.968;2023-02-28T15:56:38;17.00;12.50
939;DHT22;456;53.584;9.968;2023-02-28T15:59:07;17.00;12.60
939;DHT22;456;53.584;9.968;2023-02-28T16:01:36;17.00;12.60
939;DHT22;456;53.584;9.968;2023-02-28T16:04:12;17.00;12.60
939;DHT22;456;53.584;9.968;2023-02-28T16:06:40;17.00;12.70
939;DHT22;456;53.584;9.968;2023-02-28T16:09:14;17.00;12.70
939;DHT22;456;53.584;9.968;2023-02-28T16:11:47;17.00;12.60
939;DHT22;456;53.584;9.968;2023-02-28T16:14:22;17.00;12.70
939;DHT22;456;53.584;9.968;2023-02-28T16:16:54;17.00;12.60
939;DHT22;456;53.584;9.968;2023-02-28T16:19:20;17.00;12.60
939;DHT22;456;53.584;9.968;2023-02-28T16:21:47;17.00;12.50
939;DHT22;456;53.584;9.968;2023-02-28T16:24:12;17.00;12.50
939;DHT22;456;53.584;9.968;2023-02-28T16:26:44;17.00;12.50
939;DHT22;456;53.584;9.968;2023-02-28T16:29:20;17.00;12.50
939;DHT22;456;53.584;9.968;2023-02-28T16:31:48;17.00;12.50
939;DHT22;456;53.584;9.968;2023-02-28T16:34:14;17.00;12.50
939;DHT22;456;53.584;9.968;2023-02-28T16:36:39;17.00;12.50
939;DHT22;456;53.584;9.968;2023-02-28T16:39:06;17.00;12.50
939;DHT22;456;53.584;9.968;2023-02-28T16:41:33;17.00;12.50
939;DHT22;456;53.584;9.968;2023-02-28T16:43:59;17.00;12.50
939;DHT22;456;53.584;9.968;2023-02-28T16:46:34;17.00;12.50
939;DHT22;456;53.584;9.968;2023-02-28T16:49:00;17.00;12.50
939;DHT22;456;53.584;9.968;2023-02-28T16:51:25;17.00;12.70
939;DHT22;456;53.584;9.968;2023-02-28T16:53:51;17.00;12.60
939;DHT22;456;53.584;9.968;2023-02-28T16:56:22;17.00;12.60
939;DHT22;456;53.584;9.968;2023-02-28T16:58:49;17.00;12.60
939;DHT22;456;53.584;9.968;2023-02-28T17:01:16;17.00;13.10
939;DHT22;456;53.584;9.968;2023-02-28T17:03:42;17.00;12.60
939;DHT22;456;53.584;9.968;2023-02-28T17:06:20;17.00;12.60
939;DHT22;456;53.584;9.968;2023-02-28T17:08:48;17.00;12.60
939;DHT22;456;53.584;9.968;2023-02-28T17:11:13;17.00;12.70
939;DHT22;456;53.584;9.968;2023-02-28T17:13:39;17.00;12.70
939;DHT22;456;53.584;9.968;2023-02-28T17:16:05;17.00;12.70
939;DHT22;456;53.584;9.968;2023-02-28T17:18:30;16.90;12.50
939;DHT22;456;53.584;9.968;2023-02-28T17:21:00;16.90;12.40
939;DHT22;456;53.584;9.968;2023-02-28T17:23:25;16.90;12.50
939;DHT22;456;53.584;9.968;2023-02-28T17:25:51;16.90;12.50
939;DHT22;456;53.584;9.968;2023-02-28T17:28:21;17.00;12.70
939;DHT22;456;53.584;9.968;2023-02-28T17:30:47;17.00;12.80
939;DHT22;456;53.584;9.968;2023-02-28T17:33:14;17.00;12.80
939;DHT22;456;53.584;9.968;2023-02-28T17:35:39;17.00;12.80
939;DHT22;456;53.584;9.968;2023-02-28T17:38:05;17.00;12.70
939;DHT22;456;53.584;9.968;2023-02-28T17:40:30;17.00;12.70
939;DHT22;456;53.584;9.968;2023-02-28T17:42:56;17.00;12.60
939;DHT22;456;53.584;9.968;2023-02-28T17:45:22;17.00;12.60
939;DHT22;456;53.584;9.968;2023-02-28T17:47:49;17.00;12.60
939;DHT22;456;53.584;9.968;2023-02-28T17:50:21;17.00;12.50
939;DHT22;456;53.584;9.968;2023-02-28T17:52:48;17.00;12.50
939;DHT22;456;53.584;9.968;2023-02-28T17:55:13;17.10;12.50
939;DHT22;456;53.584;9.968;2023-02-28T17:57:39;17.00;12.40
939;DHT22;456;53.584;9.968;2023-02-28T18:00:07;17.00;12.40
939;DHT22;456;53.584;9.968;2023-02-28T18:02:34;17.00;12.40
939;DHT22;456;53.584;9.968;2023-02-28T18:04:59;17.00;12.40
939;DHT22;456;53.584;9.968;2023-02-28T18:07:25;17.00;12.30
939;DHT22;456;53.584;9.968;2023-02-28T18:09:50;17.00;12.40
939;DHT22;456;53.584;9.968;2023-02-28T18:12:16;17.00;12.40
939;DHT22;456;53.584;9.968;2023-02-28T18:14:42;17.00;12.40
939;DHT22;456;53.584;9.968;2023-02-28T18:17:09;17.00;12.40
939;DHT22;456;53.584;9.968;2023-02-28T18:19:37;17.00;12.40
939;DHT22;456;53.584;9.968;2023-02-28T18:22:03;17.00;12.40
939;DHT22;456;53.584;9.968;2023-02-28T18:24:31;17.00;12.40
939;DHT22;456;53.584;9.968;2023-02-28T18:26:57;17.10;12.50
939;DHT22;456;53.584;9.968;2023-02-28T18:29:25;17.00;12.40
939;DHT22;456;53.584;9.968;2023-02-28T18:31:52;17.00;12.50
939;DHT22;456;53.584;9.968;2023-02-28T18:34:18;17.00;13.00
939;DHT22;456;53.584;9.968;2023-02-28T18:36:45;17.00;12.50
939;DHT22;456;53.584;9.968;2023-02-28T18:39:13;17.00;12.50
939;DHT22;456;53.584;9.968;2023-02-28T18:41:39;17.00;12.50
939;DHT22;456;53.584;9.968;2023-02-28T18:44:04;17.00;12.40
939;DHT22;456;53.584;9.968;2023-02-28T18:46:30;17.00;12.40
939;DHT22;456;53.584;9.968;2023-02-28T18:48:56;17.00;12.50
939;DHT22;456;53.584;9.968;2023-02-28T18:51:23;17.10;12.80
939;DHT22;456;53.584;9.968;2023-02-28T18:53:49;17.10;12.80
939;DHT22;456;53.584;9.968;2023-02-28T18:56:19;17.10;12.80
939;DHT22;456;53.584;9.968;2023-02-28T18:58:45;17.10;12.80
939;DHT22;456;53.584;9.968;2023-02-28T19:01:27;17.10;12.80
939;DHT22;456;53.584;9.968;2023-02-28T19:03:57;17.10;12.80
939;DHT22;456;53.584;9.968;2023-02-28T19:06:25;17.10;12.80
939;DHT22;456;53.584;9.968;2023-02-28T19:08:58;17.10;12.80
939;DHT22;456;53.584;9.968;2023-02-28T19:11:24;17.10;12.70
939;DHT22;456;53.584;9.968;2023-02-28T19:13:50;17.10;12.70
939;DHT22;456;53.584;9.968;2023-02-28T19:16:18;17.10;12.60
939;DHT22;456;53.584;9.968;2023-02-28T19:18:44;17.10;12.70
939;DHT22;456;53.584;9.968;2023-02-28T19:21:12;17.10;12.70
939;DHT22;456;53.584;9.968;2023-02-28T19:23:38;17.10;12.70
939;DHT22;456;53.584;9.968;2023-02-28T19:26:09;17.10;12.60
939;DHT22;456;53.584;9.968;2023-02-28T19:28:35;17.10;12.60
939;DHT22;456;53.584;9.968;2023-02-28T19:31:01;17.10;12.60
939;DHT22;456;53.584;9.968;2023-02-28T19:33:27;17.10;12.60
939;DHT22;456;53.584;9.968;2023-02-28T19:35:54;17.10;12.50
939;DHT22;456;53.584;9.968;2023-02-28T19:38:19;17.10;12.50
939;DHT22;456;53.584;9.968;2023-02-28T19:40:45;17.10;12.60
939;DHT22;456;53.584;9.968;2023-02-28T19:43:11;17.10;12.60
939;DHT22;456;53.584;9.968;2023-02-28T19:45:37;17.10;12.60
939;DHT22;456;53.584;9.968;2023-02-28T19:48:04;17.10;12.60
939;DHT22;456;53.584;9.968;2023-02-28T19:50:29;17.10;12.50
939;DHT22;456;53.584;9.968;2023-02-28T19:52:56;17.10;12.50
939;DHT22;456;53.584;9.968;2023-02-28T19:55:21;17.10;12.60
939;DHT22;456;53.584;9.968;2023-02-28T19:57:47;17.10;12.60
939;DHT22;456;53.584;9.968;2023-02-28T20:00:14;17.10;12.60
939;DHT22;456;53.584;9.968;2023-02-28T20:02:40;17.10;12.50
939;DHT22;456;53.584;9.968;2023-02-28T20:05:07;17.10;12.60
939;DHT22;456;53.584;9.968;2023-02-28T20:07:34;17.10;12.60
939;DHT22;456;53.584;9.968;2023-02-28T20:09:59;17.10;12.60
939;DHT22;456;53.584;9.968;2023-02-28T20:12:25;17.10;12.60
939;DHT22;456;53.584;9.968;2023-02-28T20:14:52;17.10;12.70
939;DHT22;456;53.584;9.968;2023-02-28T20:17:20;17.10;12.60
939;DHT22;456;53.584;9.968;2023-02-28T20:19:46;17.10;12.70
939;DHT22;456;53.584;9.968;2023-02-28T20:22:12;17.10;12.70
939;DHT22;456;53.584;9.968;2023-02-28T20:24:37;17.10;12.80
939;DHT22;456;53.584;9.968;2023-02-28T20:27:03;17.10;12.80
939;DHT22;456;53.584;9.968;2023-02-28T20:29:29;17.10;12.80
939;DHT22;456;53.584;9.968;2023-02-28T20:31:55;17.10;12.80
939;DHT22;456;53.584;9.968;2023-02-28T20:34:22;17.10;12.80
939;DHT22;456;53.584;9.968;2023-02-28T20:36:48;17.10;12.80
939;DHT22;456;53.584;9.968;2023-02-28T20:39:14;17.10;12.80
939;DHT22;456;53.584;9.968;2023-02-28T20:41:40;17.10;12.70
939;DHT22;456;53.584;9.968;2023-02-28T20:44:05;17.10;12.70
939;DHT22;456;53.584;9.968;2023-02-28T20:46:31;17.10;12.60
939;DHT22;456;53.584;9.968;2023-02-28T20:48:58;17.10;12.60
939;DHT22;456;53.584;9.968;2023-02-28T20:51:24;17.10;12.60
939;DHT22;456;53.584;9.968;2023-02-28T20:53:49;17.10;12.50
939;DHT22;456;53.584;9.968;2023-02-28T20:56:17;17.10;12.60
939;DHT22;456;53.584;9.968;2023-02-28T20:58:45;17.10;12.50
939;DHT22;456;53.584;9.968;2023-02-28T21:01:16;17.10;12.50
939;DHT22;456;53.584;9.968;2023-02-28T21:03:44;17.10;12.50
939;DHT22;456;53.584;9.968;2023-02-28T21:06:10;17.10;12.40
939;DHT22;456;53.584;9.968;2023-02-28T21:08:36;17.00;12.40
939;DHT22;456;53.584;9.968;2023-02-28T21:11:13;17.00;12.40
939;DHT22;456;53.584;9.968;2023-02-28T21:13:40;17.00;12.40
939;DHT22;456;53.584;9.968;2023-02-28T21:16:09;17.00;12.40
939;DHT22;456;53.584;9.968;2023-02-28T21:18:36;17.00;12.30
939;DHT22;456;53.584;9.968;2023-02-28T21:21:13;17.00;12.40
939;DHT22;456;53.584;9.968;2023-02-28T21:23:40;17.00;12.20
939;DHT22;456;53.584;9.968;2023-02-28T21:26:10;17.00;12.30
939;DHT22;456;53.584;9.968;2023-02-28T21:28:37;17.00;12.20
939;DHT22;456;53.584;9.968;2023-02-28T21:31:08;17.00;12.30
939;DHT22;456;53.584;9.968;2023-02-28T21:33:34;17.00;12.20
939;DHT22;456;53.584;9.968;2023-02-28T21:36:08;17.00;12.30
939;DHT22;456;53.584;9.968;2023-02-28T21:38:35;17.00;12.20
939;DHT22;456;53.584;9.968;2023-02-28T21:41:07;17.00;12.20
939;DHT22;456;53.584;9.968;2023-02-28T21:43:33;17.00;12.20
939;DHT22;456;53.584;9.968;2023-02-28T21:46:10;17.00;12.20
939;DHT22;456;53.584;9.968;2023-02-28T21:48:37;17.00;12.20
939;DHT22;456;53.584;9.968;2023-02-28T21:51:08;17.00;12.20
939;DHT22;456;53.584;9.968;2023-02-28T21:53:36;17.00;12.20
939;DHT22;456;53.584;9.968;2023-02-28T21:56:08;17.00;12.20
939;DHT22;456;53.584;9.968;2023-02-28T21:58:35;17.00;12.20
939;DHT22;456;53.584;9.968;2023-02-28T22:01:12;17.00;12.10
939;DHT22;456;53.584;9.968;2023-02-28T22:03:39;17.00;12.10
939;DHT22;456;53.584;9.968;2023-02-28T22:06:18;17.00;12.10
939;DHT22;456;53.584;9.968;2023-02-28T22:08:47;17.00;12.10
939;DHT22;456;53.584;9.968;2023-02-28T22:11:13;17.00;12.20
939;DHT22;456;53.584;9.968;2023-02-28T22:13:40;17.00;12.20
939;DHT22;456;53.584;9.968;2023-02-28T22:16:18;17.00;12.10
939;DHT22;456;53.584;9.968;2023-02-28T22:18:44;17.00;12.10
939;DHT22;456;53.584;9.968;2023-02-28T22:21:11;17.00;12.20
939;DHT22;456;53.584;9.968;2023-02-28T22:23:38;17.00;12.10
939;DHT22;456;53.584;9.968;2023-02-28T22:26:07;17.00;12.10
939;DHT22;456;53.584;9.968;2023-02-28T22:28:33;17.00;12.20
939;DHT22;456;53.584;9.968;2023-02-28T22:31:00;17.00;12.10
939;DHT22;456;53.584;9.968;2023-02-28T22:33:26;17.00;12.10
939;DHT22;456;53.584;9.968;2023-02-28T22:35:52;17.00;12.10
939;DHT22;456;53.584;9.968;2023-02-28T22:38:18;17.00;12.20
939;DHT22;456;53.584;9.968;2023-02-28T22:40:44;17.00;12.10
939;DHT22;456;53.584;9.968;2023-02-28T22:43:10;17.00;12.20
939;DHT22;456;53.584;9.968;2023-02-28T22:45:39;16.90;12.10
939;DHT22;456;53.584;9.968;2023-02-28T22:48:06;17.00;12.70
939;DHT22;456;53.584;9.968;2023-02-28T22:50:32;16.90;12.10
939;DHT22;456;53.584;9.968;2023-02-28T22:52:58;17.00;12.10
939;DHT22;456;53.584;9.968;2023-02-28T22:55:24;17.00;12.10
939;DHT22;456;53.584;9.968;2023-02-28T22:57:50;17.00;12.10
939;DHT22;456;53.584;9.968;2023-02-28T23:00:16;17.00;12.20
939;DHT22;456;53.584;9.968;2023-02-28T23:02:43;16.90;12.10
939;DHT22;456;53.584;9.968;2023-02-28T23:05:10;17.00;12.10
939;DHT22;456;53.584;9.968;2023-02-28T23:07:37;16.90;12.10
939;DHT22;456;53.584;9.968;2023-02-28T23:10:05;16.90;12.10
939;DHT22;456;53.584;9.968;2023-02-28T23:12:31;16.90;12.10
939;DHT22;456;53.584;9.968;2023-02-28T23:14:57;16.90;12.10
939;DHT22;456;53.584;9.968;2023-02-28T23:17:22;16.90;12.10
939;DHT22;456;53.584;9.968;2023-02-28T23:19:48;16.90;12.10
939;DHT22;456;53.584;9.968;2023-02-28T23:22:13;16.90;12.00
939;DHT22;456;53.584;9.968;2023-02-28T23:24:39;16.90;12.00
939;DHT22;456;53.584;9.968;2023-02-28T23:27:05;16.90;11.90
939;DHT22;456;53.584;9.968;2023-02-28T23:29:32;16.90;11.70
939;DHT22;456;53.584;9.968;2023-02-28T23:31:58;16.90;11.80
939;DHT22;456;53.584;9.968;2023-02-28T23:34:23;16.90;11.70
939;DHT22;456;53.584;9.968;2023-02-28T23:36:53;16.90;11.60
939;DHT22;456;53.584;9.968;2023-02-28T23:39:19;16.80;11.50
939;DHT22;456;53.584;9.968;2023-02-28T23:41:45;16.80;11.60
939;DHT22;456;53.584;9.968;2023-02-28T23:44:11;16.80;11.50
939;DHT22;456;53.584;9.968;2023-02-28T23:46:42;16.80;11.50
939;DHT22;456;53.584;9.968;2023-02-28T23:49:08;16.80;11.50
939;DHT22;456;53.584;9.968;2023-02-28T23:51:33;16.80;11.40
939;DHT22;456;53.584;9.968;2023-02-28T23:53:59;16.80;11.30
939;DHT22;456;53.584;9.968;2023-02-28T23:56:27;16.80;11.40
939;DHT22;456;53.584;9.968;2023-02-28T23:58:53;16.80;11.20
